Alta Lufthavn, Norway

6:25 AM CEST on October 02, 2014 (GMT +0200)
Alta | Change Station
CLOSE
Current Station
Airport
Location: Alta Lufthavn,
Elevation: 10 ft
Nearby Weather Stations

Elev 10 ft 69.98 °N, 23.36 °E | Updated 35 minutes ago

Mostly Cloudy
Mostly Cloudy
43 °F
Feels Like 35 °F
N
15
Wind Variable Wind from SSE

Today
High -- | Low -- °F
--% Chance of Precip.
Yesterday
High -- | Low -- °F
Precip. -- in
6:45 AM 5:44 PM
First Quarter, 54% visible
Pressure 29.92 in
Visibility 6.2 miles
Clouds Few 2100 ft
Scattered Clouds 2100 ft
Mostly Cloudy 9600 ft
Windchill 35 °F
Dew Point 36 °F
Humidity 76%
Rainfall 0.00 in
Snow Depth Not available.
UV 0 out of 12
Pollen Not available.
Air Quality Not available.
Flu Activity Not available.
METAR ENAT 020350Z 16013KT 9999 FEW021TCU SCT021 BKN096 06/02 Q1013 RMK WIND 700FT 17021KT

More Conditions Fewer Conditions

Pressure 29.92 in
Visibility 6.2 miles
Clouds Few 2100 ft
Scattered Clouds 2100 ft
Mostly Cloudy 9600 ft
Windchill 35 °F
Dew Point 36 °F
Humidity 76%
Rainfall 0.00 in
Snow Depth Not available.
UV 0 out of 12
Pollen Not available.
Air Quality Not available.
Flu Activity Not available.
METAR ENAT 020350Z 16013KT 9999 FEW021TCU SCT021 BKN096 06/02 Q1013 RMK WIND 700FT 17021KT

More Conditions Fewer Conditions

10-Day Weather Forecast

Almanac

Astronomy

Oct. 02, 2014 Rise Set
Actual Time 6:45 AM CEST 5:44 PM CEST
Civil Twilight 5:44 AM CEST 6:45 PM CEST
Nautical Twilight 4:31 AM CEST 7:57 PM CEST
Astronomical Twilight 3:05 AM CEST 9:21 PM CEST
Moon 4:50 PM CEST 9:38 PM CEST
Length of Visible Light 13h 00m
Length of Day
10h 59m
Tomorrow will be 8m 36s shorter.
First Quarter, 54% of the Moon is Illuminated
Today
First Quarter
Oct 8
Full
Oct 15
Last Quarter
Oct 23
New
Oct 30
First Quarter

Yesterday's Extremes

Country Highs Country Lows

Community

WunderPhotos

Upload Photos

1,758,186 photos uploaded!

Nearby

Snow Depth

Not available.

Earthquake Activity

City Distance Mag. Time & Date
No recent earthquake activity has been reported nearby.
Minimum magnitude displayed is 2.5.

Coastal Water Temperatures

Place Temperature
No Stations Reporting

Nearby Weather Stations